createdAt,value
2022-11-08T00:02:48.770Z,91.56
2022-11-08T00:06:09.363Z,90.86
2022-11-08T00:09:36.362Z,91.04
2022-11-08T00:12:56.722Z,91.02
2022-11-08T00:16:01.089Z,90.83
2022-11-08T00:19:02.997Z,89.99
2022-11-08T00:22:05.040Z,90.27
2022-11-08T00:25:07.337Z,89.58
2022-11-08T00:28:09.075Z,89.12
2022-11-08T00:31:10.909Z,88.70
2022-11-08T00:34:13.891Z,89.04
2022-11-08T00:37:16.811Z,89.90
2022-11-08T00:40:18.886Z,90.43
2022-11-08T00:43:21.385Z,90.61
2022-11-08T00:46:23.331Z,90.80
2022-11-08T00:49:25.221Z,90.94
2022-11-08T00:52:27.154Z,90.66
2022-11-08T00:55:28.916Z,91.26
2022-11-08T00:58:30.793Z,90.93
2022-11-08T01:01:33.050Z,90.75
2022-11-08T01:04:35.031Z,90.63
2022-11-08T01:07:38.406Z,90.76
2022-11-08T01:10:44.979Z,90.90
2022-11-08T01:13:49.255Z,90.88
2022-11-08T01:16:52.345Z,91.03
2022-11-08T01:19:54.064Z,91.13
2022-11-08T01:22:55.776Z,90.88
2022-11-08T01:25:57.597Z,90.85
2022-11-08T01:28:59.795Z,91.50
2022-11-08T01:32:01.629Z,91.34
2022-11-08T01:35:03.679Z,91.34
2022-11-08T01:38:06.915Z,90.96
2022-11-08T01:41:11.844Z,91.11
2022-11-08T01:44:16.890Z,91.52
2022-11-08T01:47:18.987Z,90.98
2022-11-08T01:50:20.803Z,91.57
2022-11-08T01:53:22.831Z,90.54
2022-11-08T01:56:24.817Z,91.19
2022-11-08T01:59:30.677Z,91.54
2022-11-08T02:02:33.310Z,90.48
2022-11-08T02:05:35.110Z,91.32
2022-11-08T02:08:39.702Z,91.07
2022-11-08T02:11:41.870Z,92.25
2022-11-08T02:14:43.768Z,92.58
2022-11-08T02:17:45.647Z,91.91
2022-11-08T02:21:09.159Z,91.01
2022-11-08T02:24:12.468Z,90.65
2022-11-08T02:27:15.053Z,91.04
2022-11-08T02:30:16.840Z,90.79
2022-11-08T02:33:23.011Z,88.85
2022-11-08T02:36:24.927Z,90.17
2022-11-08T02:39:26.833Z,90.43
2022-11-08T02:42:28.496Z,89.74
2022-11-08T02:45:30.181Z,89.93
2022-11-08T02:48:31.859Z,90.51
2022-11-08T02:51:33.683Z,91.58
2022-11-08T02:54:35.646Z,91.44
2022-11-08T02:57:37.332Z,90.34
2022-11-08T03:00:39.628Z,90.72
2022-11-08T03:03:41.329Z,90.58
2022-11-08T03:06:43.146Z,90.66
2022-11-08T03:09:44.953Z,90.23
2022-11-08T03:12:46.684Z,90.47
2022-11-08T03:15:48.479Z,89.62
2022-11-08T03:18:50.206Z,89.08
2022-11-08T03:21:51.902Z,89.80
2022-11-08T03:24:53.767Z,89.83
2022-11-08T03:27:55.811Z,89.67
2022-11-08T03:30:58.058Z,89.73
2022-11-08T03:33:59.811Z,89.19
2022-11-08T03:37:01.538Z,88.13
2022-11-08T03:40:04.110Z,89.07
2022-11-08T03:43:05.871Z,88.40
2022-11-08T03:46:07.603Z,90.45
2022-11-08T03:49:09.519Z,90.43
2022-11-08T03:52:11.657Z,89.79
2022-11-08T03:55:14.396Z,88.84
2022-11-08T03:58:16.492Z,89.00
2022-11-08T04:01:18.526Z,89.72
2022-11-08T04:04:20.377Z,89.16
2022-11-08T04:07:22.189Z,89.33
2022-11-08T04:10:23.866Z,89.44
2022-11-08T04:13:44.245Z,89.70
2022-11-08T04:16:45.995Z,89.94
2022-11-08T04:20:20.036Z,90.03
2022-11-08T04:23:21.693Z,90.07
2022-11-08T04:26:23.529Z,92.49
2022-11-08T04:29:25.479Z,91.57
2022-11-08T04:32:27.160Z,91.12
2022-11-08T04:35:30.123Z,91.10
2022-11-08T04:38:32.381Z,91.43
2022-11-08T04:41:34.319Z,92.81
2022-11-08T04:44:36.094Z,92.08
2022-11-08T04:47:41.117Z,91.84
2022-11-08T04:50:45.052Z,92.46
2022-11-08T04:53:46.976Z,92.14
2022-11-08T04:56:49.196Z,92.97
2022-11-08T04:59:50.915Z,92.57
2022-11-08T05:02:52.922Z,91.82
2022-11-08T05:05:54.848Z,92.28
2022-11-08T05:08:57.856Z,91.64
2022-11-08T05:11:59.976Z,91.14
2022-11-08T05:15:01.690Z,91.09
2022-11-08T05:18:03.603Z,91.81
2022-11-08T05:21:23.908Z,92.26
2022-11-08T05:24:25.914Z,93.59
2022-11-08T05:27:28.752Z,92.97
2022-11-08T05:30:30.557Z,92.01
2022-11-08T05:33:32.920Z,92.02
2022-11-08T05:36:35.024Z,92.19
2022-11-08T05:39:36.961Z,92.32
2022-11-08T05:42:38.805Z,92.78
2022-11-08T05:45:40.722Z,92.74
2022-11-08T05:48:43.620Z,93.69
2022-11-08T05:51:45.499Z,94.29
2022-11-08T05:54:47.763Z,93.46
2022-11-08T05:57:49.852Z,91.67
2022-11-08T06:00:51.641Z,91.08
2022-11-08T06:03:53.570Z,90.12
2022-11-08T06:06:57.785Z,91.10
2022-11-08T06:09:59.858Z,92.22
2022-11-08T06:13:01.816Z,92.62
2022-11-08T06:16:05.801Z,92.37
2022-11-08T06:19:07.909Z,92.06
2022-11-08T06:22:09.982Z,92.64
2022-11-08T06:25:12.721Z,92.40
2022-11-08T06:28:15.043Z,91.42
2022-11-08T06:31:17.011Z,92.77
2022-11-08T06:34:18.768Z,92.10
2022-11-08T06:37:20.601Z,91.94
2022-11-08T06:40:22.477Z,92.38
2022-11-08T06:43:24.331Z,91.87
2022-11-08T06:46:26.750Z,92.04
2022-11-08T06:49:28.795Z,91.14
2022-11-08T06:52:30.608Z,90.60
2022-11-08T06:55:33.066Z,89.88
2022-11-08T06:58:35.160Z,91.02
2022-11-08T07:01:38.441Z,91.34
2022-11-08T07:04:42.729Z,91.40
2022-11-08T07:07:44.571Z,91.67
2022-11-08T07:10:46.407Z,91.34
2022-11-08T07:13:48.200Z,91.80
2022-11-08T07:16:50.065Z,91.75
2022-11-08T07:19:52.035Z,91.78
2022-11-08T07:22:58.087Z,93.16
2022-11-08T07:26:04.260Z,92.79
2022-11-08T07:29:06.081Z,92.47
2022-11-08T07:32:07.899Z,93.06
2022-11-08T07:35:10.040Z,94.13
2022-11-08T07:38:11.916Z,93.65
2022-11-08T07:41:13.710Z,94.83
2022-11-08T07:44:15.514Z,94.49
2022-11-08T07:47:17.401Z,95.20
2022-11-08T07:50:19.193Z,94.91
2022-11-08T07:53:21.806Z,95.07
2022-11-08T07:56:23.687Z,95.45
2022-11-08T07:59:25.598Z,94.84
2022-11-08T08:02:27.483Z,94.26
2022-11-08T08:05:35.119Z,94.17
2022-11-08T08:08:37.106Z,94.53
2022-11-08T08:11:38.921Z,95.96
2022-11-08T08:14:40.837Z,96.18
2022-11-08T08:17:42.661Z,95.57
2022-11-08T08:20:46.736Z,96.80
2022-11-08T08:23:48.650Z,97.68
2022-11-08T08:26:50.501Z,97.37
2022-11-08T08:29:52.376Z,96.44
2022-11-08T08:33:26.978Z,97.14
2022-11-08T08:36:24.190Z,98.20
2022-11-08T08:39:26.109Z,99.09
2022-11-08T08:42:27.979Z,97.54
2022-11-08T08:45:30.147Z,95.87
2022-11-08T08:48:32.566Z,94.90
2022-11-08T08:51:34.681Z,93.90
2022-11-08T08:54:36.740Z,92.68
2022-11-08T08:57:38.685Z,92.34
2022-11-08T09:04:02.790Z,91.80
2022-11-08T09:07:05.142Z,91.63
2022-11-08T09:10:08.289Z,90.52
2022-11-08T09:13:10.168Z,91.23
2022-11-08T09:16:13.764Z,91.36
2022-11-08T09:19:15.586Z,89.08
2022-11-08T09:22:17.432Z,91.19
2022-11-08T09:25:19.894Z,89.45
2022-11-08T09:28:22.011Z,89.07
2022-11-08T09:31:25.157Z,88.31
2022-11-08T09:34:27.302Z,87.50
2022-11-08T09:37:29.641Z,87.38
2022-11-08T09:40:47.177Z,88.50
2022-11-08T09:44:04.459Z,88.60
2022-11-08T09:47:36.253Z,88.23
2022-11-08T09:50:40.919Z,87.70
2022-11-08T09:53:53.200Z,86.89
2022-11-08T09:56:57.992Z,86.96
2022-11-08T10:00:04.518Z,87.14
2022-11-08T10:03:09.505Z,85.60
2022-11-08T10:06:43.656Z,85.82
2022-11-08T10:10:30.742Z,84.88
2022-11-08T10:13:52.608Z,82.82
2022-11-08T10:17:07.358Z,82.17
2022-11-08T10:20:51.395Z,83.55
2022-11-08T10:24:16.773Z,81.80
2022-11-08T10:27:25.346Z,79.28
2022-11-08T10:30:33.467Z,80.84
2022-11-08T10:33:45.696Z,80.66
2022-11-08T10:36:49.239Z,78.36
2022-11-08T10:40:04.460Z,80.37
2022-11-08T10:43:10.332Z,79.70
2022-11-08T10:46:27.579Z,78.51
2022-11-08T10:49:43.874Z,79.33
2022-11-08T10:52:54.659Z,79.47
2022-11-08T10:56:02.072Z,78.59
2022-11-08T10:59:03.889Z,79.08
2022-11-08T11:02:26.378Z,78.59
2022-11-08T11:05:37.368Z,78.85
2022-11-08T11:08:49.290Z,77.30
2022-11-08T11:12:08.226Z,75.43
2022-11-08T11:15:16.483Z,78.36
2022-11-08T11:18:28.123Z,76.66
2022-11-08T11:21:36.832Z,77.62
2022-11-08T11:24:51.462Z,75.58
2022-11-08T11:28:02.518Z,78.42
2022-11-08T11:31:17.081Z,76.45
2022-11-08T11:34:19.011Z,77.36
2022-11-08T11:37:35.587Z,76.95
2022-11-08T11:40:56.723Z,76.45
2022-11-08T11:44:15.723Z,76.24
2022-11-08T11:47:37.494Z,73.83
2022-11-08T11:50:41.215Z,75.82
2022-11-08T11:53:47.675Z,76.97
2022-11-08T11:57:08.960Z,75.72
2022-11-08T12:00:15.257Z,72.60
2022-11-08T12:04:13.054Z,72.13
2022-11-08T12:07:30.054Z,72.46
2022-11-08T12:10:50.659Z,71.31
2022-11-08T12:13:55.543Z,74.60
2022-11-08T12:17:32.635Z,72.68
2022-11-08T12:20:49.200Z,72.64
2022-11-08T12:23:51.108Z,72.37
2022-11-08T12:27:17.725Z,71.86
2022-11-08T12:30:21.030Z,72.34
2022-11-08T12:33:32.115Z,70.55
2022-11-08T12:36:52.931Z,72.98
2022-11-08T12:40:00.679Z,70.63
2022-11-08T12:43:40.199Z,70.33
2022-11-08T12:47:14.493Z,72.52
2022-11-08T12:50:20.775Z,72.52
2022-11-08T12:53:41.434Z,73.16
2022-11-08T12:56:45.906Z,72.85
2022-11-08T13:00:15.669Z,73.20
2022-11-08T13:03:29.787Z,74.10
2022-11-08T13:06:41.027Z,72.25
2022-11-08T13:10:04.790Z,73.95
2022-11-08T13:13:33.002Z,74.09
2022-11-08T13:16:39.403Z,75.02
2022-11-08T13:19:48.009Z,74.87
2022-11-08T13:23:00.961Z,74.22
2022-11-08T13:26:42.319Z,73.18
2022-11-08T13:29:44.345Z,73.35
2022-11-08T13:33:05.609Z,73.23
2022-11-08T13:36:15.305Z,73.32
2022-11-08T13:39:29.338Z,73.22
2022-11-08T13:42:41.076Z,73.79
2022-11-08T13:45:44.612Z,72.14
2022-11-08T13:48:59.262Z,72.73
2022-11-08T13:52:38.599Z,73.54
2022-11-08T13:55:43.662Z,74.75
2022-11-08T13:58:46.936Z,74.39
2022-11-08T14:01:48.760Z,74.32
2022-11-08T14:04:51.320Z,75.00
2022-11-08T14:08:20.431Z,74.96
2022-11-08T14:12:00.536Z,75.88
2022-11-08T14:15:17.688Z,75.85
2022-11-08T14:18:29.905Z,75.52
2022-11-08T14:21:31.825Z,76.81
2022-11-08T14:24:37.016Z,76.75
2022-11-08T14:27:40.819Z,76.76
2022-11-08T14:30:50.699Z,75.43
2022-11-08T14:33:53.839Z,77.72
2022-11-08T14:36:56.425Z,76.94
2022-11-08T14:39:58.463Z,78.00
2022-11-08T14:43:00.393Z,78.01
2022-11-08T14:46:12.382Z,76.54
2022-11-08T14:49:14.207Z,78.29
2022-11-08T14:52:26.073Z,78.03
2022-11-08T14:55:27.991Z,78.24
2022-11-08T14:58:30.343Z,78.27
2022-11-08T15:01:32.882Z,78.97
2022-11-08T15:04:39.713Z,79.01
2022-11-08T15:07:41.830Z,78.94
2022-11-08T15:11:07.112Z,79.43
2022-11-08T15:14:17.354Z,80.09
2022-11-08T15:17:37.709Z,79.56
2022-11-08T15:20:40.990Z,80.50
2022-11-08T15:23:48.324Z,80.52
2022-11-08T15:27:21.715Z,81.46
2022-11-08T15:30:37.992Z,81.25
2022-11-08T15:33:42.057Z,81.89
2022-11-08T15:36:44.057Z,81.79
2022-11-08T15:39:46.488Z,82.32
2022-11-08T15:42:50.897Z,81.46
2022-11-08T15:45:53.837Z,82.19
2022-11-08T15:48:57.817Z,82.75
2022-11-08T15:51:59.952Z,82.60
2022-11-08T15:55:01.779Z,82.46
2022-11-08T15:58:04.812Z,82.54
2022-11-08T16:01:07.144Z,82.60
2022-11-08T16:04:13.492Z,82.29
2022-11-08T16:07:15.721Z,83.67
2022-11-08T16:10:20.917Z,83.89
2022-11-08T16:13:33.261Z,84.81
2022-11-08T16:16:35.887Z,85.62
2022-11-08T16:19:37.768Z,85.80
2022-11-08T16:22:40.012Z,86.18
2022-11-08T16:25:49.715Z,86.39
2022-11-08T16:28:51.938Z,87.05
2022-11-08T16:31:53.812Z,87.43
2022-11-08T16:34:55.824Z,87.66
2022-11-08T16:37:57.662Z,86.89
2022-11-08T16:40:59.626Z,86.90
2022-11-08T16:44:01.543Z,86.30
2022-11-08T16:47:03.635Z,86.06
2022-11-08T16:50:07.762Z,86.45
2022-11-08T16:53:20.944Z,85.61
2022-11-08T16:56:23.438Z,85.67
2022-11-08T16:59:25.496Z,85.20
2022-11-08T17:02:31.751Z,86.23
2022-11-08T17:05:34.202Z,86.13
2022-11-08T17:08:36.466Z,86.07
2022-11-08T17:11:39.831Z,85.88
2022-11-08T17:14:41.895Z,85.74
2022-11-08T17:17:44.815Z,86.12
2022-11-08T17:20:47.763Z,85.50
2022-11-08T17:23:50.233Z,85.47
2022-11-08T17:26:53.832Z,85.21
2022-11-08T17:29:55.870Z,85.52
2022-11-08T17:32:57.968Z,84.90
2022-11-08T17:36:07.620Z,84.76
2022-11-08T17:39:12.525Z,85.17
2022-11-08T17:42:15.055Z,85.57
2022-11-08T17:45:17.167Z,85.38
2022-11-08T17:48:19.555Z,85.26
2022-11-08T17:51:22.350Z,84.88
2022-11-08T17:54:24.981Z,85.25
2022-11-08T17:57:30.217Z,84.88
2022-11-08T18:00:33.763Z,84.99
2022-11-08T18:03:35.936Z,85.93
2022-11-08T18:06:40.789Z,85.94
2022-11-08T18:09:42.777Z,85.49
2022-11-08T18:12:45.324Z,86.27
2022-11-08T18:15:48.421Z,86.22
2022-11-08T18:18:51.370Z,86.18
2022-11-08T18:21:54.472Z,86.99
2022-11-08T18:24:57.335Z,87.20
2022-11-08T18:27:59.463Z,86.74
2022-11-08T18:31:11.263Z,87.62
2022-11-08T18:34:13.324Z,88.04
2022-11-08T18:37:15.333Z,88.22
2022-11-08T18:40:17.829Z,87.93
2022-11-08T18:43:20.219Z,88.42
2022-11-08T18:46:24.539Z,89.04
2022-11-08T18:49:27.014Z,88.66
2022-11-08T18:52:29.966Z,89.78
2022-11-08T18:55:33.728Z,92.26
2022-11-08T18:58:36.562Z,91.93
2022-11-08T19:01:39.463Z,93.18
2022-11-08T19:04:42.939Z,93.12
2022-11-08T19:07:46.941Z,92.64
2022-11-08T19:10:54.998Z,93.40
2022-11-08T19:13:59.889Z,93.71
2022-11-08T19:17:05.386Z,94.36
2022-11-08T19:20:11.151Z,94.79
2022-11-08T19:23:13.457Z,94.13
2022-11-08T19:26:25.140Z,94.66
2022-11-08T19:29:30.235Z,94.71
2022-11-08T19:32:33.205Z,95.03
2022-11-08T19:35:37.874Z,95.42
2022-11-08T19:38:41.444Z,94.42
2022-11-08T19:41:45.649Z,94.56
2022-11-08T19:44:49.044Z,94.58
2022-11-08T19:47:53.041Z,94.68
2022-11-08T19:50:57.121Z,94.20
2022-11-08T19:54:05.985Z,95.42
2022-11-08T19:57:12.292Z,96.11
2022-11-08T20:00:16.032Z,95.73
2022-11-08T20:03:19.304Z,96.24
2022-11-08T20:06:22.760Z,96.09
2022-11-08T20:09:30.639Z,96.71
2022-11-08T20:12:33.065Z,96.68
2022-11-08T20:15:37.640Z,95.68
2022-11-08T20:18:41.597Z,95.50
2022-11-08T20:21:46.541Z,95.87
2022-11-08T20:24:49.047Z,94.96
2022-11-08T20:27:50.968Z,95.57
2022-11-08T20:30:53.245Z,94.45
2022-11-08T20:33:56.196Z,94.34
2022-11-08T20:36:58.856Z,94.87
2022-11-08T20:40:00.745Z,94.93
2022-11-08T20:43:02.782Z,94.40
2022-11-08T20:46:06.895Z,95.19
2022-11-08T20:49:09.687Z,95.18
2022-11-08T20:52:11.816Z,94.99
2022-11-08T20:55:13.996Z,95.02
2022-11-08T20:58:16.230Z,95.45
2022-11-08T21:01:21.501Z,96.04
2022-11-08T21:04:23.850Z,96.03
2022-11-08T21:10:49.096Z,96.19
2022-11-08T21:13:51.293Z,95.11
2022-11-08T21:17:20.070Z,95.59
2022-11-08T21:20:15.696Z,95.41
2022-11-08T21:23:19.076Z,94.85
2022-11-08T21:26:21.108Z,94.77
2022-11-08T21:29:23.024Z,94.24
2022-11-08T21:32:25.102Z,93.82
2022-11-08T21:35:27.028Z,94.58
2022-11-08T21:38:29.530Z,95.16
2022-11-08T21:41:31.602Z,94.59
2022-11-08T21:44:33.455Z,95.14
2022-11-08T21:47:35.681Z,93.09
2022-11-08T21:50:38.335Z,92.99
2022-11-08T21:53:49.449Z,94.54
2022-11-08T21:56:55.827Z,93.61
2022-11-08T21:59:57.852Z,93.71
2022-11-08T22:02:59.859Z,95.21
2022-11-08T22:06:02.181Z,94.96
2022-11-08T22:09:04.393Z,94.48
2022-11-08T22:12:06.602Z,94.46
2022-11-08T22:15:09.559Z,95.90
2022-11-08T22:18:36.420Z,94.90
2022-11-08T22:21:40.501Z,95.89
2022-11-08T22:24:43.343Z,96.10
2022-11-08T22:27:45.209Z,96.69
2022-11-08T22:30:51.772Z,96.17
2022-11-08T22:33:53.617Z,95.53
2022-11-08T22:36:55.543Z,95.04
2022-11-08T22:39:57.618Z,95.25
2022-11-08T22:42:59.593Z,94.76
2022-11-08T22:46:01.908Z,95.55
2022-11-08T22:49:04.079Z,94.51
2022-11-08T22:52:06.338Z,95.40
2022-11-08T22:55:08.960Z,95.36
2022-11-08T22:58:12.174Z,95.64
2022-11-08T23:01:15.264Z,96.19
2022-11-08T23:04:17.537Z,95.12
2022-11-08T23:07:19.411Z,95.81
2022-11-08T23:10:21.385Z,96.37
2022-11-08T23:13:41.940Z,95.64
2022-11-08T23:16:45.536Z,94.70
2022-11-08T23:20:05.958Z,95.37
2022-11-08T23:23:27.868Z,95.05
2022-11-08T23:27:05.179Z,93.75
2022-11-08T23:30:26.903Z,94.25
2022-11-08T23:33:28.751Z,93.10
2022-11-08T23:36:30.619Z,92.59
2022-11-08T23:39:32.523Z,92.09
2022-11-08T23:42:52.909Z,92.69
2022-11-08T23:45:54.813Z,93.12
2022-11-08T23:48:56.733Z,93.33
2022-11-08T23:51:58.797Z,92.72
2022-11-08T23:55:00.572Z,92.29
2022-11-08T23:58:02.328Z,92.32
